createdAt,value
2022-10-05T00:00:23.165Z,12.03
2022-10-05T00:02:52.632Z,12.04
2022-10-05T00:05:29.256Z,12.08
2022-10-05T00:07:59.298Z,12.04
2022-10-05T00:10:27.695Z,12.01
2022-10-05T00:12:55.804Z,11.99
2022-10-05T00:15:24.589Z,11.95
2022-10-05T00:17:52.948Z,11.92
2022-10-05T00:20:24.094Z,11.88
2022-10-05T00:22:58.699Z,11.84
2022-10-05T00:25:26.705Z,11.78
2022-10-05T00:27:59.408Z,11.79
2022-10-05T00:30:29.155Z,11.78
2022-10-05T00:32:59.639Z,11.69
2022-10-05T00:35:29.383Z,11.66
2022-10-05T00:37:58.739Z,11.69
2022-10-05T00:40:36.810Z,11.67
2022-10-05T00:43:19.539Z,11.68
2022-10-05T00:45:50.152Z,11.60
2022-10-05T00:48:24.513Z,11.52
2022-10-05T00:51:25.539Z,11.46
2022-10-05T00:54:18.950Z,11.46
2022-10-05T00:57:00.253Z,11.46
2022-10-05T00:59:46.232Z,11.44
2022-10-05T01:02:17.228Z,11.44
2022-10-05T01:04:50.239Z,11.38
2022-10-05T01:07:26.087Z,11.37
2022-10-05T01:10:00.556Z,11.34
2022-10-05T01:12:34.553Z,11.36
2022-10-05T01:15:06.990Z,11.28
2022-10-05T01:17:39.202Z,11.19
2022-10-05T01:20:24.912Z,11.20
2022-10-05T01:23:24.073Z,11.21
2022-10-05T01:26:02.685Z,11.25
2022-10-05T01:28:33.992Z,11.20
2022-10-05T01:31:06.364Z,11.18
2022-10-05T01:33:37.239Z,11.18
2022-10-05T01:36:11.336Z,11.21
2022-10-05T01:38:45.164Z,11.14
2022-10-05T01:41:20.337Z,11.15
2022-10-05T01:43:52.057Z,11.19
2022-10-05T01:46:25.988Z,11.14
2022-10-05T01:49:07.399Z,11.12
2022-10-05T01:51:40.143Z,11.10
2022-10-05T01:54:15.734Z,11.09
2022-10-05T01:56:48.396Z,11.08
2022-10-05T01:59:27.867Z,11.04
2022-10-05T02:01:59.584Z,10.96
2022-10-05T02:05:00.356Z,10.89
2022-10-05T02:07:23.642Z,10.87
2022-10-05T02:09:55.774Z,10.84
2022-10-05T02:12:25.344Z,10.80
2022-10-05T02:14:59.605Z,10.72
2022-10-05T02:17:32.653Z,10.64
2022-10-05T02:20:03.299Z,10.55
2022-10-05T02:22:34.990Z,10.54
2022-10-05T02:25:05.919Z,10.52
2022-10-05T02:27:35.950Z,10.54
2022-10-05T02:30:11.694Z,10.50
2022-10-05T02:32:48.593Z,10.50
2022-10-05T02:35:20.161Z,10.45
2022-10-05T02:37:57.431Z,10.43
2022-10-05T02:40:34.467Z,10.46
2022-10-05T02:43:07.614Z,10.44
2022-10-05T02:45:42.858Z,10.44
2022-10-05T02:48:14.648Z,10.43
2022-10-05T02:50:48.521Z,10.45
2022-10-05T02:53:24.030Z,10.45
2022-10-05T02:56:00.161Z,10.52
2022-10-05T02:58:30.269Z,10.51
2022-10-05T03:01:04.305Z,10.60
2022-10-05T03:03:36.451Z,10.45
2022-10-05T03:06:06.725Z,10.45
2022-10-05T03:08:37.025Z,10.46
2022-10-05T03:11:09.563Z,10.46
2022-10-05T03:13:46.201Z,10.45
2022-10-05T03:16:25.505Z,10.41
2022-10-05T03:19:03.941Z,10.39
2022-10-05T03:21:46.461Z,10.44
2022-10-05T03:24:27.636Z,10.41
2022-10-05T03:26:59.285Z,10.41
2022-10-05T03:29:32.217Z,10.41
2022-10-05T03:32:07.142Z,10.40
2022-10-05T03:34:39.521Z,10.38
2022-10-05T03:37:11.864Z,10.41
2022-10-05T03:39:42.264Z,10.41
2022-10-05T03:42:17.169Z,10.37
2022-10-05T03:44:51.392Z,10.33
2022-10-05T03:47:30.270Z,10.30
2022-10-05T03:50:15.121Z,10.26
2022-10-05T03:52:47.534Z,10.22
2022-10-05T03:55:21.005Z,10.22
2022-10-05T03:57:51.321Z,10.19
2022-10-05T04:00:23.182Z,10.17
2022-10-05T04:02:56.227Z,10.15
2022-10-05T04:05:26.553Z,10.12
2022-10-05T04:07:58.002Z,10.11
2022-10-05T04:10:28.648Z,10.13
2022-10-05T04:13:00.364Z,10.11
2022-10-05T04:15:33.577Z,10.13
2022-10-05T04:18:07.593Z,10.10
2022-10-05T04:20:42.078Z,10.12
2022-10-05T04:23:18.853Z,10.12
2022-10-05T04:25:50.401Z,10.12
2022-10-05T04:28:21.671Z,10.14
2022-10-05T04:30:50.806Z,10.08
2022-10-05T04:33:20.100Z,10.10
2022-10-05T04:35:59.317Z,10.16
2022-10-05T04:38:36.142Z,10.14
2022-10-05T04:41:17.558Z,10.14
2022-10-05T04:43:54.557Z,10.16
2022-10-05T04:46:34.747Z,10.14
2022-10-05T04:49:23.299Z,10.10
2022-10-05T04:51:55.776Z,10.06
2022-10-05T04:54:30.828Z,10.02
2022-10-05T04:57:01.693Z,10.01
2022-10-05T05:00:05.725Z,9.97
2022-10-05T05:02:44.664Z,9.96
2022-10-05T05:05:29.304Z,9.99
2022-10-05T05:08:04.806Z,10.01
2022-10-05T05:10:55.265Z,9.85
2022-10-05T05:13:45.465Z,9.64
2022-10-05T05:16:18.985Z,9.68
2022-10-05T05:19:01.181Z,9.72
2022-10-05T05:21:38.006Z,9.69
2022-10-05T05:24:11.380Z,9.74
2022-10-05T05:26:53.529Z,9.75
2022-10-05T05:29:28.440Z,9.78
2022-10-05T05:32:02.848Z,9.77
2022-10-05T05:34:41.991Z,9.77
2022-10-05T05:37:14.858Z,9.80
2022-10-05T05:39:50.144Z,9.79
2022-10-05T05:42:28.008Z,9.82
2022-10-05T05:44:58.181Z,9.76
2022-10-05T05:47:35.312Z,9.73
2022-10-05T05:50:19.839Z,9.73
2022-10-05T05:52:54.477Z,9.75
2022-10-05T05:55:29.894Z,9.77
2022-10-05T05:58:03.548Z,9.77
2022-10-05T06:00:35.654Z,9.78
2022-10-05T06:03:08.023Z,9.83
2022-10-05T06:05:40.848Z,9.80
2022-10-05T06:08:15.060Z,9.85
2022-10-05T06:10:46.519Z,9.88
2022-10-05T06:13:18.280Z,9.91
2022-10-05T06:15:48.566Z,9.93
2022-10-05T06:18:19.495Z,10.00
2022-10-05T06:20:52.249Z,9.95
2022-10-05T06:23:26.676Z,9.95
2022-10-05T06:26:12.846Z,9.92
2022-10-05T06:28:40.773Z,9.95
2022-10-05T06:31:19.747Z,9.98
2022-10-05T06:33:51.417Z,10.01
2022-10-05T06:36:29.246Z,10.04
2022-10-05T06:39:38.436Z,10.07
2022-10-05T06:42:18.036Z,10.02
2022-10-05T06:44:53.414Z,10.05
2022-10-05T06:47:30.487Z,10.11
2022-10-05T06:50:06.936Z,10.14
2022-10-05T06:52:42.455Z,10.22
2022-10-05T06:55:17.659Z,10.29
2022-10-05T06:58:01.363Z,10.35
2022-10-05T07:00:33.319Z,10.34
2022-10-05T07:03:06.464Z,10.40
2022-10-05T07:05:54.024Z,10.45
2022-10-05T07:08:29.227Z,10.57
2022-10-05T07:11:06.688Z,10.66
2022-10-05T07:13:52.006Z,10.79
2022-10-05T07:16:26.406Z,10.98
2022-10-05T07:19:04.407Z,11.12
2022-10-05T07:21:39.498Z,11.32
2022-10-05T07:24:22.728Z,11.47
2022-10-05T07:26:58.118Z,11.62
2022-10-05T07:29:30.762Z,11.75
2022-10-05T07:32:04.842Z,11.90
2022-10-05T07:34:44.056Z,11.99
2022-10-05T07:37:31.755Z,12.06
2022-10-05T07:40:05.953Z,12.14
2022-10-05T07:42:51.987Z,12.30
2022-10-05T07:45:27.936Z,12.44
2022-10-05T07:47:57.293Z,12.64
2022-10-05T07:50:28.884Z,12.80
2022-10-05T07:52:58.884Z,12.96
2022-10-05T07:55:28.036Z,13.12
2022-10-05T07:58:04.819Z,13.26
2022-10-05T08:00:47.924Z,13.42
2022-10-05T08:03:22.133Z,13.57
2022-10-05T08:05:50.167Z,13.72
2022-10-05T08:08:23.013Z,13.88
2022-10-05T08:10:55.176Z,14.04
2022-10-05T08:13:29.653Z,14.17
2022-10-05T08:16:00.773Z,14.36
2022-10-05T08:18:40.920Z,14.55
2022-10-05T08:21:12.158Z,14.75
2022-10-05T08:23:44.683Z,14.91
2022-10-05T08:26:18.836Z,15.08
2022-10-05T08:28:53.128Z,15.26
2022-10-05T08:31:24.392Z,15.38
2022-10-05T08:33:58.715Z,15.53
2022-10-05T08:36:44.856Z,15.67
2022-10-05T08:39:17.179Z,15.85
2022-10-05T08:42:24.880Z,16.03
2022-10-05T08:45:37.399Z,16.20
2022-10-05T08:48:31.490Z,16.34
2022-10-05T08:51:21.605Z,16.42
2022-10-05T08:54:20.697Z,16.54
2022-10-05T08:56:52.637Z,16.71
2022-10-05T09:00:10.454Z,16.86
2022-10-05T09:03:01.153Z,16.97
2022-10-05T09:05:58.435Z,17.07
2022-10-05T09:08:52.611Z,17.17
2022-10-05T09:11:26.393Z,17.27
2022-10-05T09:14:26.715Z,17.38
2022-10-05T09:17:19.097Z,17.47
2022-10-05T09:20:01.690Z,17.56
2022-10-05T09:22:55.280Z,17.65
2022-10-05T09:25:24.541Z,17.69
2022-10-05T09:27:57.892Z,17.89
2022-10-05T09:30:49.578Z,17.91
2022-10-05T09:33:45.527Z,18.02
2022-10-05T09:36:52.801Z,18.15
2022-10-05T09:39:36.538Z,18.17
2022-10-05T09:42:31.531Z,18.29
2022-10-05T09:45:39.344Z,18.37
2022-10-05T09:48:51.534Z,18.46
2022-10-05T09:51:49.588Z,18.62
2022-10-05T09:55:08.340Z,18.64
2022-10-05T09:57:53.362Z,18.80
2022-10-05T10:00:26.514Z,18.87
2022-10-05T10:03:29.682Z,19.00
2022-10-05T10:06:10.439Z,19.12
2022-10-05T10:08:47.062Z,19.19
2022-10-05T10:11:25.096Z,19.23
2022-10-05T10:14:05.570Z,19.31
2022-10-05T10:16:44.810Z,19.42
2022-10-05T10:19:33.655Z,19.51
2022-10-05T10:22:53.524Z,19.61
2022-10-05T10:25:34.592Z,19.62
2022-10-05T10:28:23.484Z,19.68
2022-10-05T10:31:07.508Z,19.81
2022-10-05T10:34:07.273Z,19.90
2022-10-05T10:36:51.949Z,19.97
2022-10-05T10:39:25.898Z,20.05
2022-10-05T10:42:08.108Z,20.12
2022-10-05T10:44:58.942Z,20.19
2022-10-05T10:47:49.494Z,20.27
2022-10-05T10:50:46.051Z,20.33
2022-10-05T10:53:29.068Z,20.53
2022-10-05T10:56:10.175Z,20.62
2022-10-05T10:59:03.171Z,20.76
2022-10-05T11:01:34.460Z,20.89
2022-10-05T11:04:29.679Z,21.00
2022-10-05T11:07:18.553Z,21.13
2022-10-05T11:10:03.152Z,21.22
2022-10-05T11:12:50.938Z,21.35
2022-10-05T11:16:01.989Z,21.47
2022-10-05T11:18:36.398Z,21.52
2022-10-05T11:21:21.975Z,21.59
2022-10-05T11:24:11.221Z,21.73
2022-10-05T11:26:52.318Z,21.87
2022-10-05T11:29:44.990Z,21.96
2022-10-05T11:32:27.531Z,22.09
2022-10-05T11:35:24.694Z,22.22
2022-10-05T11:38:08.230Z,22.33
2022-10-05T11:41:07.639Z,22.35
2022-10-05T11:43:59.608Z,22.41
2022-10-05T11:46:35.705Z,22.43
2022-10-05T11:49:30.268Z,22.44
2022-10-05T11:52:07.825Z,22.51
2022-10-05T11:57:39.677Z,22.57
2022-10-05T12:00:15.469Z,22.63
2022-10-05T12:03:18.914Z,22.70
2022-10-05T12:06:08.515Z,22.80
2022-10-05T12:08:44.391Z,22.92
2022-10-05T12:11:33.155Z,23.04
2022-10-05T12:14:05.752Z,23.18
2022-10-05T12:16:37.239Z,23.36
2022-10-05T12:19:13.820Z,23.46
2022-10-05T12:21:48.743Z,23.51
2022-10-05T12:24:26.852Z,23.54
2022-10-05T12:27:00.229Z,23.63
2022-10-05T12:29:30.654Z,23.76
2022-10-05T12:32:00.560Z,23.82
2022-10-05T12:34:37.851Z,23.92
2022-10-05T12:37:11.287Z,24.01
2022-10-05T12:39:46.731Z,24.03
2022-10-05T12:42:27.253Z,24.11
2022-10-05T12:45:18.683Z,24.12
2022-10-05T12:47:59.567Z,24.20
2022-10-05T12:54:33.303Z,24.25
2022-10-05T12:57:07.147Z,24.33
2022-10-05T12:59:42.040Z,24.45
2022-10-05T13:02:22.298Z,24.45
2022-10-05T13:04:56.995Z,24.49
2022-10-05T13:07:48.028Z,24.46
2022-10-05T13:10:29.244Z,24.49
2022-10-05T13:13:11.126Z,24.44
2022-10-05T13:15:47.161Z,24.53
2022-10-05T13:18:23.888Z,24.47
2022-10-05T13:21:02.806Z,24.51
2022-10-05T13:23:39.599Z,24.51
2022-10-05T13:26:12.628Z,24.52
2022-10-05T13:28:46.425Z,24.53
2022-10-05T13:31:19.702Z,24.57
2022-10-05T13:34:07.200Z,24.56
2022-10-05T13:36:43.652Z,24.54
2022-10-05T13:39:27.809Z,24.54
2022-10-05T13:42:03.757Z,24.50
2022-10-05T13:44:39.711Z,24.55
2022-10-05T13:47:14.096Z,24.57
2022-10-05T13:49:49.938Z,24.54
2022-10-05T13:52:30.296Z,24.54
2022-10-05T13:55:03.121Z,24.55
2022-10-05T13:57:46.749Z,24.51
2022-10-05T14:00:22.749Z,24.47
2022-10-05T14:02:57.260Z,24.56
2022-10-05T14:05:26.958Z,24.68
2022-10-05T14:07:57.286Z,24.64
2022-10-05T14:10:35.239Z,24.73
2022-10-05T14:13:19.642Z,24.75
2022-10-05T14:16:04.639Z,24.79
2022-10-05T14:18:34.983Z,24.84
2022-10-05T14:21:07.061Z,24.84
2022-10-05T14:23:35.776Z,24.81
2022-10-05T14:26:04.657Z,24.73
2022-10-05T14:28:39.203Z,24.69
2022-10-05T14:31:15.583Z,24.60
2022-10-05T14:33:43.926Z,24.60
2022-10-05T14:36:17.392Z,24.51
2022-10-05T14:38:57.795Z,24.42
2022-10-05T14:41:27.706Z,24.37
2022-10-05T14:44:02.839Z,24.38
2022-10-05T14:46:33.283Z,24.39
2022-10-05T14:49:22.448Z,24.26
2022-10-05T14:51:51.407Z,24.30
2022-10-05T14:54:28.818Z,24.30
2022-10-05T14:57:07.300Z,24.29
2022-10-05T15:00:05.909Z,24.27
2022-10-05T15:02:58.293Z,24.25
2022-10-05T15:05:31.582Z,24.18
2022-10-05T15:08:09.228Z,24.06
2022-10-05T15:10:43.021Z,24.03
2022-10-05T15:13:16.716Z,24.00
2022-10-05T15:15:54.050Z,23.90
2022-10-05T15:18:34.946Z,23.75
2022-10-05T15:21:24.943Z,23.67
2022-10-05T15:23:57.633Z,23.54
2022-10-05T15:26:37.258Z,23.43
2022-10-05T15:29:16.192Z,23.36
2022-10-05T15:31:56.343Z,23.20
2022-10-05T15:34:31.136Z,23.10
2022-10-05T15:37:08.120Z,23.05
2022-10-05T15:39:43.285Z,23.07
2022-10-05T15:42:14.723Z,23.07
2022-10-05T15:44:55.840Z,22.97
2022-10-05T15:47:35.112Z,22.88
2022-10-05T15:50:14.128Z,22.77
2022-10-05T15:52:49.222Z,22.73
2022-10-05T15:55:35.236Z,22.67
2022-10-05T15:58:25.396Z,22.66
2022-10-05T16:01:02.158Z,22.55
2022-10-05T16:03:43.965Z,22.58
2022-10-05T16:06:42.062Z,22.55
2022-10-05T16:09:29.294Z,22.45
2022-10-05T16:12:19.277Z,22.44
2022-10-05T16:14:56.845Z,22.43
2022-10-05T16:17:51.132Z,22.43
2022-10-05T16:20:30.329Z,22.47
2022-10-05T16:23:07.192Z,22.48
2022-10-05T16:25:54.489Z,22.49
2022-10-05T16:28:33.652Z,22.51
2022-10-05T16:31:09.546Z,22.49
2022-10-05T16:33:54.624Z,22.39
2022-10-05T16:36:37.576Z,22.20
2022-10-05T16:39:15.010Z,22.04
2022-10-05T16:41:56.250Z,21.82
2022-10-05T16:44:38.725Z,21.64
2022-10-05T16:47:27.756Z,21.48
2022-10-05T16:50:04.368Z,21.25
2022-10-05T16:52:38.591Z,21.03
2022-10-05T16:55:14.065Z,20.85
2022-10-05T16:57:47.130Z,20.68
2022-10-05T17:00:22.434Z,20.48
2022-10-05T17:03:11.727Z,20.22
2022-10-05T17:05:58.637Z,20.09
2022-10-05T17:08:46.019Z,19.95
2022-10-05T17:11:26.942Z,19.81
2022-10-05T17:14:10.265Z,19.68
2022-10-05T17:16:49.110Z,19.58
2022-10-05T17:19:38.780Z,19.47
2022-10-05T17:22:14.305Z,19.34
2022-10-05T17:24:55.047Z,19.29
2022-10-05T17:27:33.539Z,19.20
2022-10-05T17:30:35.209Z,19.16
2022-10-05T17:33:19.613Z,19.12
2022-10-05T17:36:13.517Z,19.09
2022-10-05T17:38:49.908Z,19.06
2022-10-05T17:41:21.955Z,19.08
2022-10-05T17:44:24.419Z,19.04
2022-10-05T17:46:54.909Z,19.07
2022-10-05T17:50:09.538Z,19.03
2022-10-05T17:52:58.761Z,19.01
2022-10-05T17:56:03.710Z,19.00
2022-10-05T17:59:04.249Z,19.01
2022-10-05T18:01:34.936Z,18.98
2022-10-05T18:04:39.658Z,18.92
2022-10-05T18:07:22.351Z,18.91
2022-10-05T18:09:59.198Z,18.88
2022-10-05T18:12:47.034Z,18.92
2022-10-05T18:15:46.424Z,18.94
2022-10-05T18:18:57.393Z,18.88
2022-10-05T18:21:29.931Z,18.86
2022-10-05T18:24:46.239Z,18.83
2022-10-05T18:28:00.889Z,18.80
2022-10-05T18:30:40.660Z,18.79
2022-10-05T18:33:38.237Z,18.81
2022-10-05T18:36:21.201Z,18.76
2022-10-05T18:38:56.948Z,18.76
2022-10-05T18:41:34.613Z,18.74
2022-10-05T18:44:20.361Z,18.69
2022-10-05T18:46:55.406Z,18.65
2022-10-05T18:49:38.936Z,18.69
2022-10-05T18:52:13.641Z,18.66
2022-10-05T18:54:54.922Z,18.61
2022-10-05T18:57:46.870Z,18.56
2022-10-05T19:00:18.538Z,18.54
2022-10-05T19:02:57.250Z,18.49
2022-10-05T19:05:48.067Z,18.50
2022-10-05T19:08:27.283Z,18.42
2022-10-05T19:10:59.170Z,18.38
2022-10-05T19:13:41.559Z,18.38
2022-10-05T19:16:27.766Z,18.44
2022-10-05T19:19:30.763Z,18.38
2022-10-05T19:22:07.613Z,18.34
2022-10-05T19:24:48.471Z,18.37
2022-10-05T19:27:26.172Z,18.32
2022-10-05T19:30:33.842Z,18.29
2022-10-05T19:33:42.919Z,18.24
2022-10-05T19:36:23.495Z,18.17
2022-10-05T19:39:03.453Z,18.12
2022-10-05T19:41:45.233Z,18.09
2022-10-05T19:44:20.885Z,18.05
2022-10-05T19:47:00.009Z,18.08
2022-10-05T19:49:48.896Z,18.01
2022-10-05T19:52:28.441Z,17.95
2022-10-05T19:55:13.996Z,17.89
2022-10-05T19:57:49.904Z,17.84
2022-10-05T20:00:24.728Z,17.80
2022-10-05T20:02:53.859Z,17.78
2022-10-05T20:05:23.134Z,17.75
2022-10-05T20:07:52.659Z,17.76
2022-10-05T20:10:29.223Z,17.73
2022-10-05T20:12:59.994Z,17.72
2022-10-05T20:15:47.654Z,17.71
2022-10-05T20:18:56.325Z,17.69
2022-10-05T20:21:42.333Z,17.69
2022-10-05T20:24:13.676Z,17.67
2022-10-05T20:27:00.841Z,17.65
2022-10-05T20:29:29.222Z,17.64
2022-10-05T20:31:57.970Z,17.64
2022-10-05T20:34:25.954Z,17.61
2022-10-05T20:36:53.734Z,17.60
2022-10-05T20:39:23.287Z,17.57
2022-10-05T20:41:51.037Z,17.57
2022-10-05T20:44:18.800Z,17.57
2022-10-05T20:46:47.478Z,17.64
2022-10-05T20:49:15.389Z,17.60
2022-10-05T20:51:43.372Z,17.61
2022-10-05T20:54:11.218Z,17.65
2022-10-05T20:56:42.608Z,17.64
2022-10-05T20:59:10.821Z,17.67
2022-10-05T21:01:38.629Z,17.70
2022-10-05T21:04:06.986Z,17.73
2022-10-05T21:06:35.146Z,17.70
2022-10-05T21:09:03.325Z,17.75
2022-10-05T21:11:31.401Z,17.74
2022-10-05T21:14:04.896Z,17.74
2022-10-05T21:16:34.177Z,17.72
2022-10-05T21:19:02.042Z,17.74
2022-10-05T21:21:29.886Z,17.69
2022-10-05T21:24:00.778Z,17.66
2022-10-05T21:26:29.879Z,17.62
2022-10-05T21:28:58.373Z,17.60
2022-10-05T21:31:28.802Z,17.56
2022-10-05T21:33:57.514Z,17.53
2022-10-05T21:36:25.701Z,17.49
2022-10-05T21:38:55.288Z,17.50
2022-10-05T21:41:24.128Z,17.42
2022-10-05T21:43:51.986Z,17.40
2022-10-05T21:46:23.224Z,17.40
2022-10-05T21:48:52.460Z,17.50
2022-10-05T21:51:21.037Z,17.48
2022-10-05T21:53:52.962Z,17.45
2022-10-05T21:56:24.094Z,17.47
2022-10-05T21:58:53.109Z,17.41
2022-10-05T22:01:22.903Z,17.37
2022-10-05T22:03:52.519Z,17.37
2022-10-05T22:06:20.366Z,17.30
2022-10-05T22:08:48.247Z,17.32
2022-10-05T22:11:18.771Z,17.29
2022-10-05T22:13:48.822Z,17.26
2022-10-05T22:16:18.470Z,17.25
2022-10-05T22:18:46.566Z,17.25
2022-10-05T22:21:16.845Z,17.24
2022-10-05T22:23:46.915Z,17.21
2022-10-05T22:26:17.679Z,17.25
2022-10-05T22:28:46.763Z,17.22
2022-10-05T22:31:15.473Z,17.21
2022-10-05T22:33:43.712Z,17.19
2022-10-05T22:36:11.934Z,17.19
2022-10-05T22:38:41.092Z,17.25
2022-10-05T22:41:12.248Z,17.20
2022-10-05T22:43:40.692Z,17.27
2022-10-05T22:46:10.195Z,17.18
2022-10-05T22:48:38.222Z,17.20
2022-10-05T22:51:06.526Z,17.23
2022-10-05T22:53:34.744Z,17.27
2022-10-05T22:56:08.948Z,17.22
2022-10-05T22:58:37.984Z,17.18
2022-10-05T23:01:07.884Z,17.16
2022-10-05T23:03:36.225Z,17.14
2022-10-05T23:06:06.620Z,17.06
2022-10-05T23:08:35.647Z,17.05
2022-10-05T23:11:04.030Z,17.06
2022-10-05T23:13:33.758Z,17.04
2022-10-05T23:16:08.474Z,17.02
2022-10-05T23:18:36.557Z,17.06
2022-10-05T23:21:05.738Z,17.01
2022-10-05T23:23:33.808Z,17.00
2022-10-05T23:26:02.883Z,16.98
2022-10-05T23:28:31.852Z,16.98
2022-10-05T23:31:02.345Z,16.97
2022-10-05T23:33:31.068Z,16.92
2022-10-05T23:36:00.524Z,16.90
2022-10-05T23:38:29.567Z,16.90
2022-10-05T23:40:59.889Z,16.93
2022-10-05T23:43:28.459Z,16.92
2022-10-05T23:45:57.367Z,16.89
2022-10-05T23:48:27.476Z,16.89
2022-10-05T23:50:56.532Z,16.90
2022-10-05T23:53:24.782Z,16.89
2022-10-05T23:55:53.389Z,16.84
2022-10-05T23:58:21.757Z,17.03
